Portada
METAR-TAF:

METAR-TAF

Aeroports :

Apalachicola, Florida, Estats Units d'Amèrica

latitud: 29-43-37N, longitud: 085-01-29W, altitud: 6 m

Observació

L'informe es va fer fa 32 minuts, a les 12:53 UTC
Vent calma
Temperatura 21°C
Humitat 100%
Pressió 1019 hPa
Visibilitat: 16.1 km
Escasses núvols a una alçada de 1000 ft

METAR: KAAF 261253Z AUTO 00000KT 10SM FEW010 21/21 A3010 RMK AO2 SLP191 T02110211 $

Hora: 08:25 (13:25 UTC)


TAF: manca

Observacions i pronòstics meteorològics de més de 4000 aeroports (METAR i TAF).

Les estacions disponibles són els punts grocs i vermells al mapa.

Posi el ratolí al punt desitjat per veure el nom de l'estació.

Feu clic per veure les observacions i els pronòstics meteorològics.

Per canviar el mapa: feu clic els botons verds amb una creu de color negre per apropar; al botó verd amb un guió per allunyar la imatge; o en les fletxes verdes per a mapes adjacents.


METAR-TAF: